Time;durP1;ratioP1;P1;durP2;ratioP2;P2;SDS_P1;SDS_P2;PMS_P1;PMS_P2;Temp;Humidity;BMP_temperature;BMP_pressure;BME280_temperature;BME280_humidity;BME280_pressure;Samples;Min_cycle;Max_cycle;Signal;HPM_P1;HPM_P2
2022/05/09 00:02:12;;;;;;;11.10;10.13;;;13.40;99.90;;;;;;5087732;28;20253;-46
2022/05/09 00:04:41;;;;;;;12.50;11.17;;;13.40;99.90;;;;;;5091746;28;20194;-45
2022/05/09 00:07:08;;;;;;;10.33;9.57;;;13.30;99.90;;;;;;5091768;28;20200;-46
2022/05/09 00:09:36;;;;;;;11.23;10.23;;;13.20;99.90;;;;;;5080078;28;20269;-45
2022/05/09 00:12:03;;;;;;;9.80;9.00;;;13.20;99.90;;;;;;5084661;28;20200;-46
2022/05/09 00:14:30;;;;;;;9.87;9.20;;;13.10;99.90;;;;;;5090296;28;20216;-46
2022/05/09 00:16:57;;;;;;;10.97;10.17;;;13.10;99.90;;;;;;5086067;28;20200;-46
2022/05/09 00:19:24;;;;;;;11.83;10.73;;;13.10;99.90;;;;;;5087762;28;20296;-46
2022/05/09 00:21:54;;;;;;;10.77;9.87;;;13.10;99.90;;;;;;5085245;28;20253;-46
2022/05/09 00:24:23;;;;;;;11.97;10.87;;;13.00;99.90;;;;;;5091939;28;20246;-45
2022/05/09 00:26:51;;;;;;;11.70;10.70;;;13.00;99.90;;;;;;5088383;28;20614;-46
2022/05/09 00:29:20;;;;;;;11.77;10.67;;;13.00;99.90;;;;;;5072923;28;20255;-46
2022/05/09 00:31:49;;;;;;;9.80;9.00;;;13.00;99.90;;;;;;5089735;28;20196;-46
2022/05/09 00:34:18;;;;;;;10.30;9.43;;;13.00;99.90;;;;;;5092305;28;20266;-46
2022/05/09 00:36:48;;;;;;;9.63;8.63;;;12.90;99.90;;;;;;5089291;28;20677;-46
2022/05/09 00:39:17;;;;;;;10.57;9.70;;;12.90;99.90;;;;;;5089724;28;20226;-45
2022/05/09 00:41:49;;;;;;;10.53;9.60;;;12.90;99.90;;;;;;5076317;28;20220;-46
2022/05/09 00:44:19;;;;;;;10.27;9.47;;;12.90;99.90;;;;;;5089139;28;20654;-46
2022/05/09 00:46:47;;;;;;;11.47;10.33;;;12.90;99.90;;;;;;5088572;28;20204;-46
2022/05/09 00:49:22;;;;;;;10.00;9.10;;;12.90;99.90;;;;;;5080550;28;20233;-45
2022/05/09 00:51:57;;;;;;;11.57;10.57;;;12.90;99.90;;;;;;5084450;28;20219;-46
2022/05/09 00:54:28;;;;;;;10.10;9.30;;;12.90;99.90;;;;;;5082967;28;20219;-45
2022/05/09 00:57:02;;;;;;;11.03;10.07;;;12.90;99.90;;;;;;5088060;28;20201;-46
2022/05/09 00:59:31;;;;;;;10.73;9.93;;;12.90;99.90;;;;;;5086113;28;20298;-46
2022/05/09 01:01:58;;;;;;;10.27;9.47;;;12.90;99.90;;;;;;5087286;28;20209;-46
2022/05/09 01:04:29;;;;;;;9.83;9.03;;;12.90;99.90;;;;;;5077581;28;20194;-46
2022/05/09 01:06:58;;;;;;;9.70;8.87;;;12.90;99.90;;;;;;5088175;28;20205;-46
2022/05/09 01:09:26;;;;;;;11.33;10.33;;;12.80;99.90;;;;;;5086285;28;20274;-45
2022/05/09 01:11:54;;;;;;;11.13;10.03;;;12.80;99.90;;;;;;5088480;28;20200;-46
2022/05/09 01:14:23;;;;;;;10.30;9.40;;;12.70;99.90;;;;;;5090787;28;20625;-45
2022/05/09 01:16:50;;;;;;;13.37;12.07;;;12.70;99.90;;;;;;5090125;28;20207;-46
2022/05/09 01:19:29;;;;;;;10.90;10.00;;;12.70;99.90;;;;;;5091057;28;20268;-46
2022/05/09 01:21:59;;;;;;;10.07;9.17;;;12.70;99.90;;;;;;5093566;28;20196;-45
2022/05/09 01:24:28;;;;;;;10.97;10.07;;;12.70;99.90;;;;;;5096143;28;20184;-46
2022/05/09 01:26:55;;;;;;;10.73;9.87;;;12.70;99.90;;;;;;5096140;28;20623;-46
2022/05/09 01:29:30;;;;;;;10.33;9.63;;;12.80;99.90;;;;;;5095946;28;20273;-46
2022/05/09 01:31:59;;;;;;;9.67;8.83;;;12.90;99.90;;;;;;5093025;28;20211;-46
2022/05/09 01:34:27;;;;;;;10.70;9.70;;;12.90;99.90;;;;;;5095624;28;20211;-45
2022/05/09 01:37:03;;;;;;;8.90;8.20;;;12.80;99.90;;;;;;5093552;28;20250;-46
2022/05/09 01:39:31;;;;;;;10.57;9.70;;;12.80;99.90;;;;;;5094037;28;20266;-45
2022/05/09 01:41:58;;;;;;;10.07;9.33;;;12.70;99.90;;;;;;5095161;28;20739;-46
2022/05/09 01:44:27;;;;;;;11.20;10.30;;;12.70;99.90;;;;;;5093633;28;20237;-45
2022/05/09 01:49:40;;;;;;;11.33;10.40;;;12.80;99.90;;;;;;5095505;28;20238;-45
2022/05/09 01:52:11;;;;;;;11.10;9.23;;;12.80;99.90;;;;;;5095417;28;20414;-46
2022/05/09 01:54:39;;;;;;;8.50;7.90;;;12.90;99.90;;;;;;5094488;28;20306;-46
2022/05/09 01:57:07;;;;;;;8.57;7.97;;;12.90;99.90;;;;;;5095185;28;20219;-46
2022/05/09 01:59:35;;;;;;;8.67;8.07;;;12.80;99.90;;;;;;5086464;28;20221;-46
2022/05/09 02:02:03;;;;;;;8.33;7.73;;;12.80;99.90;;;;;;5095187;28;20196;-45
2022/05/09 02:04:31;;;;;;;8.07;7.47;;;12.80;99.90;;;;;;5095478;28;20227;-45
2022/05/09 02:06:58;;;;;;;8.00;7.20;;;12.80;99.90;;;;;;5093743;28;20257;-46
2022/05/09 02:09:26;;;;;;;6.03;5.73;;;12.70;99.90;;;;;;5092065;28;20216;-46
2022/05/09 02:11:53;;;;;;;6.43;6.03;;;12.60;99.90;;;;;;5092865;28;20203;-45
2022/05/09 02:14:20;;;;;;;7.20;6.70;;;12.60;99.90;;;;;;5090449;28;20293;-46
2022/05/09 02:16:47;;;;;;;6.90;6.50;;;12.60;99.90;;;;;;5093232;28;20204;-46
2022/05/09 02:19:14;;;;;;;7.03;6.53;;;12.70;99.90;;;;;;5095018;28;20216;-45
2022/05/09 02:21:41;;;;;;;7.17;6.67;;;12.70;99.90;;;;;;5094810;28;20198;-46
2022/05/09 02:24:09;;;;;;;6.33;5.93;;;12.70;99.90;;;;;;5094924;28;20248;-46
2022/05/09 02:26:37;;;;;;;7.40;6.80;;;12.70;99.90;;;;;;5092156;28;20242;-45
2022/05/09 02:29:05;;;;;;;6.87;6.47;;;12.70;99.90;;;;;;5094401;28;20234;-45
2022/05/09 02:31:32;;;;;;;6.83;5.83;;;12.60;99.90;;;;;;5094385;28;20246;-46
2022/05/09 02:34:01;;;;;;;6.07;5.67;;;12.60;99.90;;;;;;5094626;28;20279;-45
2022/05/09 02:36:28;;;;;;;6.07;5.67;;;12.50;99.90;;;;;;5094570;28;20211;-45
2022/05/09 02:38:55;;;;;;;6.60;6.20;;;12.50;99.90;;;;;;5090266;28;20277;-46
2022/05/09 02:41:23;;;;;;;7.83;7.27;;;12.50;99.90;;;;;;5088315;28;20201;-46
2022/05/09 02:43:51;;;;;;;6.67;6.27;;;12.40;99.90;;;;;;5085854;28;20197;-46
2022/05/09 02:46:18;;;;;;;6.57;6.17;;;12.30;99.90;;;;;;5081402;28;20200;-45
2022/05/09 02:48:46;;;;;;;5.93;5.57;;;12.30;99.90;;;;;;5091985;28;20249;-45
2022/05/09 02:51:13;;;;;;;6.60;6.20;;;12.30;99.90;;;;;;5073952;28;20283;-46
2022/05/09 02:53:41;;;;;;;7.57;6.97;;;12.20;99.90;;;;;;5073927;28;20206;-46
2022/05/09 02:56:08;;;;;;;7.27;6.73;;;12.20;99.90;;;;;;5080880;28;20196;-45
2022/05/09 02:58:35;;;;;;;7.13;6.63;;;12.30;99.90;;;;;;5077078;28;20267;-45
2022/05/09 03:01:04;;;;;;;7.73;7.17;;;12.30;99.90;;;;;;5083635;28;20197;-45
2022/05/09 03:06:15;;;;;;;8.07;7.37;;;12.30;99.90;;;;;;5092281;28;20214;-45
2022/05/09 03:08:42;;;;;;;7.77;7.17;;;12.30;99.90;;;;;;5087615;28;20220;-45
2022/05/09 03:11:12;;;;;;;7.13;6.63;;;12.30;99.90;;;;;;5085868;28;20196;-46
2022/05/09 03:13:39;;;;;;;6.80;6.30;;;12.30;99.90;;;;;;5080719;28;20264;-45
2022/05/09 03:16:09;;;;;;;7.80;7.20;;;12.30;99.90;;;;;;5073023;28;20651;-45
2022/05/09 03:18:37;;;;;;;8.53;7.83;;;12.30;99.90;;;;;;5072839;28;20225;-45
2022/05/09 03:21:23;;;;;;;8.30;7.60;;;12.30;99.90;;;;;;5073166;28;20601;-45
2022/05/09 03:23:50;;;;;;;7.00;6.50;;;12.40;99.90;;;;;;5080843;28;20218;-45
2022/05/09 03:26:16;;;;;;;8.33;7.70;;;12.50;99.90;;;;;;5076757;28;20662;-45
2022/05/09 03:28:44;;;;;;;7.50;6.93;;;12.50;99.90;;;;;;5073032;28;20266;-45
2022/05/09 03:31:13;;;;;;;7.10;6.60;;;12.50;99.90;;;;;;5087337;28;20192;-45
2022/05/09 03:33:41;;;;;;;8.17;7.37;;;12.60;99.90;;;;;;5091496;28;20634;-45
2022/05/09 03:36:08;;;;;;;9.83;7.30;;;12.60;99.90;;;;;;5090478;28;20260;-45
2022/05/09 03:38:37;;;;;;;7.07;6.67;;;12.60;99.90;;;;;;5085233;28;20230;-45
2022/05/09 03:41:04;;;;;;;6.53;6.03;;;12.50;99.90;;;;;;5078968;28;20200;-45
2022/05/09 03:43:31;;;;;;;7.40;6.90;;;12.50;99.90;;;;;;5071909;28;20196;-45
2022/05/09 03:46:00;;;;;;;6.70;6.20;;;12.40;99.90;;;;;;5072404;28;20195;-45
2022/05/09 03:48:29;;;;;;;6.27;5.87;;;12.40;99.90;;;;;;5072171;28;20233;-45
2022/05/09 03:50:57;;;;;;;6.57;6.10;;;12.30;99.90;;;;;;5085846;28;20230;-45
2022/05/09 03:53:25;;;;;;;7.00;6.40;;;12.30;99.90;;;;;;5080655;28;20205;-45
2022/05/09 03:55:52;;;;;;;7.17;6.67;;;12.20;99.90;;;;;;5078095;28;20239;-45
2022/05/09 03:58:19;;;;;;;6.67;6.27;;;12.20;99.90;;;;;;5072176;28;20365;-45
2022/05/09 04:00:47;;;;;;;7.33;6.83;;;12.30;99.90;;;;;;5072194;28;20741;-45
2022/05/09 04:03:14;;;;;;;7.63;7.10;;;12.30;99.90;;;;;;5071887;28;20575;-45
2022/05/09 04:05:43;;;;;;;7.20;6.70;;;12.40;99.90;;;;;;5072375;28;20204;-45
2022/05/09 04:08:16;;;;;;;7.60;7.07;;;12.40;99.90;;;;;;5074043;28;20225;-45
2022/05/09 04:10:43;;;;;;;7.20;6.70;;;12.40;99.90;;;;;;5075372;28;20246;-45
2022/05/09 04:13:10;;;;;;;7.70;7.17;;;12.50;99.90;;;;;;5090408;28;20196;-45
2022/05/09 04:18:26;;;;;;;8.17;7.57;;;12.40;99.90;;;;;;5071918;28;20594;-45
2022/05/09 04:20:54;;;;;;;6.60;6.00;;;12.40;99.90;;;;;;5077600;28;20674;-45
2022/05/09 04:23:22;;;;;;;7.47;6.97;;;12.40;99.90;;;;;;5079963;28;20250;-45
2022/05/09 04:25:49;;;;;;;6.83;6.30;;;12.40;99.90;;;;;;5075350;28;20250;-45
2022/05/09 04:28:18;;;;;;;6.97;6.57;;;12.30;99.90;;;;;;5077971;28;20628;-45
2022/05/09 04:30:46;;;;;;;7.07;6.37;;;12.30;99.90;;;;;;5090646;28;20256;-45
2022/05/09 04:33:14;;;;;;;7.40;6.90;;;12.30;99.90;;;;;;5090496;28;20613;-45
2022/05/09 04:35:42;;;;;;;7.60;7.10;;;12.30;99.90;;;;;;5081487;28;20216;-45
2022/05/09 04:38:14;;;;;;;6.90;6.40;;;12.30;99.90;;;;;;5072652;28;20423;-45
2022/05/09 04:40:41;;;;;;;6.37;5.87;;;12.30;99.90;;;;;;5071419;28;20264;-45
2022/05/09 04:43:08;;;;;;;7.13;6.63;;;12.40;99.90;;;;;;5071041;28;20666;-45
2022/05/09 04:45:36;;;;;;;7.80;7.20;;;12.40;99.90;;;;;;5104270;22;20232;-52
2022/05/09 04:48:04;;;;;;;6.90;6.33;;;12.50;99.90;;;;;;5072681;28;20270;-52
2022/05/09 04:50:32;;;;;;;8.87;8.17;;;12.70;99.90;;;;;;5066310;28;20204;-52
2022/05/09 04:52:59;;;;;;;8.10;7.50;;;12.80;99.90;;;;;;5070665;28;20270;-52
2022/05/09 04:55:27;;;;;;;8.03;7.47;;;13.20;99.90;;;;;;5064607;28;20225;-52
2022/05/09 04:57:55;;;;;;;9.17;8.10;;;13.80;99.90;;;;;;5051774;28;20271;-52
2022/05/09 05:00:25;;;;;;;7.83;7.03;;;14.50;99.90;;;;;;5060266;28;20203;-52
2022/05/09 05:02:52;;;;;;;8.40;7.70;;;14.70;99.90;;;;;;5070156;28;20262;-52
2022/05/09 05:05:19;;;;;;;7.63;7.00;;;14.80;99.90;;;;;;5070000;28;20267;-52
2022/05/09 05:07:48;;;;;;;8.53;7.93;;;14.80;99.90;;;;;;5069744;28;20615;-52
2022/05/09 05:10:16;;;;;;;10.00;9.30;;;15.00;99.90;;;;;;5065782;28;20287;-52
2022/05/09 05:12:44;;;;;;;10.37;9.47;;;15.20;99.90;;;;;;5066959;28;20633;-53
2022/05/09 05:15:12;;;;;;;9.57;8.87;;;15.30;99.90;;;;;;5070044;28;20628;-54
2022/05/09 05:17:40;;;;;;;9.57;8.80;;;15.40;99.90;;;;;;5070140;28;20193;-52
2022/05/09 05:20:10;;;;;;;8.63;7.83;;;15.80;99.90;;;;;;5060637;28;20213;-53
2022/05/09 05:22:38;;;;;;;9.33;7.63;;;16.30;99.90;;;;;;5070242;28;20209;-52
2022/05/09 05:25:07;;;;;;;10.23;9.20;;;16.70;99.90;;;;;;5055416;28;20222;-52
2022/05/09 05:27:34;;;;;;;9.23;8.53;;;16.80;99.90;;;;;;5053398;28;20266;-52
2022/05/09 05:30:03;;;;;;;8.93;8.17;;;16.90;99.90;;;;;;5069584;28;20201;-52
2022/05/09 05:32:34;;;;;;;10.47;9.50;;;16.70;99.90;;;;;;5069869;28;20243;-52
2022/05/09 05:35:01;;;;;;;10.07;9.27;;;16.70;99.90;;;;;;5050856;28;20292;-52
2022/05/09 05:37:28;;;;;;;9.23;8.63;;;17.40;99.90;;;;;;5067494;28;20213;-52
2022/05/09 05:39:57;;;;;;;9.73;8.93;;;17.90;99.90;;;;;;5065117;28;20280;-52
2022/05/09 05:42:24;;;;;;;9.13;8.43;;;18.30;99.90;;;;;;5069694;28;20686;-52
2022/05/09 05:44:51;;;;;;;8.03;7.47;;;19.00;99.90;;;;;;5069766;28;20186;-52
2022/05/09 05:47:22;;;;;;;8.50;7.90;;;19.80;99.90;;;;;;5054962;28;20579;-52
2022/05/09 05:49:50;;;;;;;9.70;8.90;;;20.20;99.90;;;;;;5054972;28;20213;-52
2022/05/09 05:52:17;;;;;;;8.90;8.10;;;20.60;99.90;;;;;;5068790;28;20671;-53
2022/05/09 05:54:46;;;;;;;9.50;8.87;;;20.90;99.90;;;;;;5068558;28;20202;-53
2022/05/09 05:57:19;;;;;;;9.37;8.53;;;21.00;99.90;;;;;;5069812;28;20193;-52
2022/05/09 05:59:50;;;;;;;9.53;8.80;;;21.30;99.90;;;;;;5056295;28;20198;-53
2022/05/09 06:02:18;;;;;;;8.93;8.07;;;21.70;99.90;;;;;;5067096;28;20235;-52
2022/05/09 06:04:46;;;;;;;6.40;6.00;;;21.70;99.90;;;;;;5069250;28;20198;-53
2022/05/09 06:07:13;;;;;;;7.33;6.93;;;22.00;99.90;;;;;;5070972;28;20193;-53
2022/05/09 06:09:41;;;;;;;8.70;7.90;;;22.20;99.90;;;;;;5072663;28;20228;-53
2022/05/09 06:12:09;;;;;;;7.50;6.83;;;22.30;99.90;;;;;;5073250;28;20598;-53
2022/05/09 06:14:38;;;;;;;6.53;6.07;;;22.60;99.90;;;;;;5066990;28;20283;-53
2022/05/09 06:17:05;;;;;;;7.77;7.23;;;22.40;99.90;;;;;;5074329;28;20259;-53
2022/05/09 06:19:34;;;;;;;7.38;6.68;;;22.20;99.90;;;;;;5068147;28;20558;-52
2022/05/09 06:22:02;;;;;;;6.07;5.77;;;22.80;99.90;;;;;;5072395;28;20205;-52
2022/05/09 06:24:29;;;;;;;7.50;7.07;;;23.20;99.90;;;;;;5071444;28;20260;-52
2022/05/09 06:26:56;;;;;;;7.13;6.73;;;23.60;99.90;;;;;;5066195;28;20217;-52
2022/05/09 06:29:23;;;;;;;8.00;7.50;;;23.60;99.90;;;;;;5054837;28;20247;-53
2022/05/09 06:31:51;;;;;;;7.20;6.77;;;23.50;99.90;;;;;;5069841;28;20663;-52
2022/05/09 06:34:18;;;;;;;6.03;5.53;;;23.70;99.90;;;;;;5054820;28;20198;-52
2022/05/09 06:36:50;;;;;;;5.17;4.87;;;24.10;99.90;;;;;;5052652;28;20222;-53
2022/05/09 06:39:17;;;;;;;4.20;3.60;;;24.30;99.90;;;;;;5068828;28;20194;-53
2022/05/09 06:41:44;;;;;;;5.73;5.23;;;24.10;99.90;;;;;;5071024;28;20633;-53
2022/05/09 06:44:11;;;;;;;3.33;3.13;;;23.70;99.90;;;;;;5060205;28;20255;-53
2022/05/09 06:46:38;;;;;;;2.87;2.67;;;23.40;99.90;;;;;;5071023;28;20217;-53
2022/05/09 06:49:06;;;;;;;4.07;2.63;;;24.00;99.90;;;;;;5065106;28;20289;-53
2022/05/09 06:51:33;;;;;;;3.37;3.07;;;24.40;99.90;;;;;;5069508;28;20193;-53
2022/05/09 06:54:02;;;;;;;2.30;2.20;;;24.50;99.90;;;;;;5065621;28;20193;-53
2022/05/09 06:56:29;;;;;;;2.37;2.33;;;24.70;99.90;;;;;;5067947;28;20256;-53
2022/05/09 06:58:56;;;;;;;2.30;2.30;;;25.20;99.90;;;;;;5063602;28;20194;-53
2022/05/09 07:01:22;;;;;;;2.97;2.77;;;25.10;99.90;;;;;;5070550;28;20639;-53
2022/05/09 07:03:49;;;;;;;2.40;2.40;;;25.30;99.90;;;;;;5072048;28;20736;-54
2022/05/09 07:06:17;;;;;;;3.10;3.00;;;25.60;99.90;;;;;;5071956;28;20209;-54
2022/05/09 07:08:45;;;;;;;2.03;1.93;;;25.50;99.90;;;;;;5067744;28;20283;-54
2022/05/09 07:11:15;;;;;;;2.70;2.60;;;26.00;99.90;;;;;;5067734;28;20194;-54
2022/05/09 07:13:42;;;;;;;2.33;2.33;;;25.80;99.90;;;;;;5072166;28;20787;-56
2022/05/09 07:16:11;;;;;;;2.37;2.23;;;25.40;99.90;;;;;;5071941;28;20213;-54
2022/05/09 07:18:39;;;;;;;3.50;3.30;;;26.00;99.90;;;;;;5070591;28;20522;-54
2022/05/09 07:21:07;;;;;;;3.67;3.55;;;26.80;99.90;;;;;;5070111;28;20197;-54
2022/05/09 07:23:34;;;;;;;2.78;2.67;;;26.90;99.90;;;;;;5068524;28;20610;-56
2022/05/09 07:26:02;;;;;;;3.05;2.63;;;26.50;99.90;;;;;;5071766;28;20209;-54
2022/05/09 07:28:31;;;;;;;2.70;2.60;;;26.90;99.90;;;;;;5070709;28;20197;-56
2022/05/09 07:31:00;;;;;;;2.83;2.63;;;27.20;99.90;;;;;;5068856;28;20201;-56
2022/05/09 07:33:28;;;;;;;4.88;2.85;;;27.50;99.90;;;;;;5070724;28;20197;-56
2022/05/09 07:35:55;;;;;;;2.53;2.33;;;27.90;99.90;;;;;;5059818;28;20221;-56
2022/05/09 07:38:22;;;;;;;3.40;3.20;;;27.90;99.90;;;;;;5062486;28;20227;-56
2022/05/09 07:40:49;;;;;;;3.03;2.92;;;26.80;99.90;;;;;;5071506;28;20682;-56
2022/05/09 07:43:18;;;;;;;4.18;3.88;;;26.90;99.90;;;;;;5071245;28;20338;-56
2022/05/09 07:45:48;;;;;;;3.53;2.83;;;27.00;99.90;;;;;;5071446;28;20221;-56
2022/05/09 07:48:16;;;;;;;4.55;4.30;;;27.40;99.90;;;;;;5065086;28;20536;-56
2022/05/09 07:50:43;;;;;;;5.53;5.22;;;28.10;99.70;;;;;;5069519;28;20726;-55
2022/05/09 07:53:13;;;;;;;6.03;5.82;;;27.50;99.90;;;;;;5072215;28;20255;-53
2022/05/09 07:55:41;;;;;;;7.03;6.53;;;26.50;99.90;;;;;;5072226;28;20217;-53
2022/05/09 07:58:09;;;;;;;10.33;9.63;;;26.50;99.90;;;;;;5070959;28;20197;-55
2022/05/09 08:00:36;;;;;;;11.47;10.70;;;24.90;99.90;;;;;;5072035;28;20284;-55
2022/05/09 08:03:05;;;;;;;9.53;8.73;;;22.80;99.90;;;;;;5071834;28;20566;-53
2022/05/09 08:05:32;;;;;;;9.37;8.70;;;21.90;99.90;;;;;;5071903;28;20701;-53
2022/05/09 08:07:59;;;;;;;9.07;8.37;;;21.60;99.90;;;;;;5071044;28;20311;-55
2022/05/09 08:10:26;;;;;;;10.77;10.07;;;21.70;99.90;;;;;;5071595;28;20247;-53
2022/05/09 08:12:53;;;;;;;12.33;11.23;;;22.30;99.90;;;;;;5071678;28;20349;-55
2022/05/09 08:15:21;;;;;;;9.73;8.80;;;23.30;99.90;;;;;;5071505;28;20225;-53
2022/05/09 08:17:49;;;;;;;8.70;8.10;;;24.10;99.90;;;;;;5067728;28;20202;-55
2022/05/09 08:20:19;;;;;;;6.37;5.93;;;24.70;99.90;;;;;;5068421;28;20571;-55
2022/05/09 08:22:46;;;;;;;6.73;6.10;;;25.70;99.90;;;;;;5071139;28;20255;-55
2022/05/09 08:25:16;;;;;;;8.13;7.60;;;26.70;99.90;;;;;;5065386;28;20732;-56
2022/05/09 08:27:42;;;;;;;11.30;10.50;;;27.40;99.90;;;;;;5054283;28;20203;-55
2022/05/09 08:30:12;;;;;;;11.37;10.47;;;26.50;99.90;;;;;;5070160;28;20197;-56
2022/05/09 08:32:39;;;;;;;11.23;10.43;;;25.30;99.90;;;;;;5070290;28;20698;-55
2022/05/09 08:35:08;;;;;;;12.63;11.53;;;25.70;99.90;;;;;;5070419;28;20213;-55
2022/05/09 08:37:36;;;;;;;8.93;8.30;;;25.70;99.90;;;;;;5069149;28;20592;-56
2022/05/09 08:40:04;;;;;;;9.87;9.17;;;25.60;99.90;;;;;;5063358;28;20221;-53
2022/05/09 08:42:40;;;;;;;9.97;9.37;;;25.10;99.90;;;;;;5064672;28;20262;-55
2022/05/09 08:45:20;;;;;;;12.17;11.17;;;23.80;99.90;;;;;;5070271;28;20934;-53
2022/05/09 08:48:15;;;;;;;13.93;12.87;;;23.50;99.90;;;;;;5069609;28;20196;-55
2022/05/09 08:51:01;;;;;;;11.63;10.83;;;23.60;99.90;;;;;;5069440;28;20563;-56
2022/05/09 08:53:30;;;;;;;11.70;10.73;;;24.10;99.90;;;;;;5072911;28;20209;-55
2022/05/09 08:55:59;;;;;;;13.97;12.87;;;25.20;99.90;;;;;;5069813;28;20278;-53
2022/05/09 08:58:37;;;;;;;12.83;11.93;;;24.80;99.90;;;;;;5066764;28;20204;-53
2022/05/09 09:01:11;;;;;;;11.53;10.70;;;25.00;99.90;;;;;;5069307;28;20274;-53
2022/05/09 09:03:43;;;;;;;13.63;12.63;;;25.60;99.90;;;;;;5070297;28;20196;-53
2022/05/09 09:06:21;;;;;;;14.43;13.23;;;25.00;99.90;;;;;;5069940;28;20204;-53
2022/05/09 09:09:03;;;;;;;12.40;11.47;;;24.70;99.90;;;;;;5067907;28;20655;-53
2022/05/09 09:11:46;;;;;;;12.30;11.40;;;25.10;99.90;;;;;;5068529;28;20292;-53
2022/05/09 09:14:24;;;;;;;12.77;11.63;;;24.70;99.90;;;;;;5067279;28;20193;-53
2022/05/09 09:17:04;;;;;;;10.43;9.63;;;24.70;99.90;;;;;;5069877;28;20224;-55
2022/05/09 09:20:09;;;;;;;10.83;10.03;;;25.10;99.90;;;;;;5067311;28;20663;-53
2022/05/09 09:22:51;;;;;;;11.57;10.77;;;25.40;99.90;;;;;;5038405;28;20244;-53
2022/05/09 09:25:43;;;;;;;9.87;9.27;;;25.10;99.90;;;;;;5051291;28;20221;-55
2022/05/09 09:28:14;;;;;;;10.37;9.40;;;25.40;99.90;;;;;;5055989;28;20590;-53
2022/05/09 09:30:43;;;;;;;10.43;9.73;;;24.40;99.90;;;;;;5069953;28;20197;-53
2022/05/09 09:33:11;;;;;;;9.60;9.00;;;24.60;99.90;;;;;;5069922;28;20197;-54
2022/05/09 09:35:48;;;;;;;9.47;8.70;;;24.30;99.90;;;;;;5054820;28;20320;-54
2022/05/09 09:38:23;;;;;;;7.97;7.57;;;24.70;99.90;;;;;;5056280;28;20200;-55
2022/05/09 09:40:52;;;;;;;8.60;8.00;;;25.00;99.90;;;;;;5066931;28;20667;-55
2022/05/09 09:43:19;;;;;;;7.60;7.00;;;25.60;99.90;;;;;;5076566;28;20200;-55
2022/05/09 09:46:01;;;;;;;7.17;6.87;;;25.10;99.90;;;;;;5073705;28;20277;-54
2022/05/09 09:48:30;;;;;;;8.43;7.73;;;25.40;99.90;;;;;;5073090;28;20250;-55
2022/05/09 09:51:03;;;;;;;5.60;5.40;;;24.70;99.90;;;;;;5070121;28;20204;-55
2022/05/09 09:53:37;;;;;;;7.37;6.97;;;24.60;99.90;;;;;;5071289;28;20212;-55
2022/05/09 09:56:09;;;;;;;6.07;5.70;;;24.40;99.90;;;;;;5070846;28;20303;-55
2022/05/09 09:58:39;;;;;;;6.20;5.80;;;24.70;99.90;;;;;;5067466;28;20240;-55
2022/05/09 10:01:09;;;;;;;6.73;6.33;;;25.40;99.90;;;;;;5073323;28;20324;-55
2022/05/09 10:03:39;;;;;;;5.93;5.67;;;25.60;99.90;;;;;;5073146;28;20197;-55
2022/05/09 10:06:15;;;;;;;7.13;6.57;;;25.50;99.90;;;;;;5072989;28;20278;-55
2022/05/09 10:08:43;;;;;;;5.40;5.20;;;24.90;99.90;;;;;;5067675;28;20209;-55
2022/05/09 10:11:14;;;;;;;6.27;5.87;;;25.00;99.90;;;;;;5068639;28;20201;-55
2022/05/09 10:13:44;;;;;;;5.70;5.30;;;25.70;99.90;;;;;;5069528;28;20250;-55
2022/05/09 10:16:13;;;;;;;6.87;6.47;;;24.90;99.90;;;;;;5072731;28;20213;-55
2022/05/09 10:18:44;;;;;;;5.00;4.80;;;24.40;99.90;;;;;;5072556;28;20238;-55
2022/05/09 10:24:47;;;;;;;5.83;5.57;;;24.40;99.90;;;;;;5071066;28;20239;-55
2022/05/09 10:26:58;;;;;;;5.70;5.50;;;25.30;99.90;;;;;;5054026;28;20224;-54
2022/05/09 10:29:28;;;;;;;6.07;5.67;;;24.80;99.90;;;;;;5067832;28;20282;-55
2022/05/09 10:32:00;;;;;;;4.90;4.63;;;24.80;99.90;;;;;;5073603;28;20707;-55
2022/05/09 10:34:33;;;;;;;4.57;4.37;;;25.40;99.90;;;;;;5073918;28;20209;-55
2022/05/09 10:37:10;;;;;;;7.27;6.77;;;25.40;99.90;;;;;;5073489;28;20274;-55
2022/05/09 10:39:43;;;;;;;6.20;5.90;;;24.10;99.90;;;;;;5072988;28;20220;-55
2022/05/09 10:42:12;;;;;;;5.50;5.23;;;24.00;99.90;;;;;;5066986;28;20193;-55
2022/05/09 10:44:45;;;;;;;6.20;5.90;;;24.20;99.90;;;;;;5072578;28;20255;-55
2022/05/09 10:47:23;;;;;;;6.13;5.73;;;24.40;99.90;;;;;;5092399;22;20229;-47
2022/05/09 10:49:56;;;;;;;6.50;6.00;;;23.80;99.90;;;;;;5072487;28;20254;-47
2022/05/09 10:52:34;;;;;;;6.87;6.27;;;23.80;99.90;;;;;;5073208;28;21504;-47
2022/05/09 10:55:06;;;;;;;6.00;5.60;;;23.40;99.90;;;;;;5072021;28;20201;-47
2022/05/09 10:57:41;;;;;;;6.33;6.03;;;22.90;99.90;;;;;;5073930;28;20568;-47
2022/05/09 11:00:11;;;;;;;4.93;4.67;;;22.70;99.90;;;;;;5072825;28;20681;-47
2022/05/09 11:02:41;;;;;;;7.10;6.70;;;22.90;99.90;;;;;;5072933;28;20197;-47
2022/05/09 11:05:08;;;;;;;7.17;6.77;;;22.70;99.90;;;;;;5073781;28;20189;-47
2022/05/09 11:07:45;;;;;;;8.63;8.03;;;22.70;99.90;;;;;;5073814;28;20544;-47
2022/05/09 11:10:23;;;;;;;8.03;7.43;;;22.30;99.90;;;;;;5072844;28;20201;-47
2022/05/09 11:13:12;;;;;;;6.40;6.00;;;22.60;99.90;;;;;;5071809;28;20258;-47
2022/05/09 11:15:50;;;;;;;6.63;6.13;;;22.80;99.90;;;;;;5073224;28;20699;-47
2022/05/09 11:18:38;;;;;;;7.60;7.10;;;22.90;99.90;;;;;;5072859;28;20220;-47
2022/05/09 11:21:20;;;;;;;7.63;7.13;;;22.80;99.90;;;;;;5072955;28;20255;-47
2022/05/09 11:23:56;;;;;;;7.47;7.07;;;22.90;99.90;;;;;;5071443;28;20201;-47
2022/05/09 11:26:29;;;;;;;10.27;9.57;;;23.00;99.90;;;;;;5073197;28;20278;-47
2022/05/09 11:29:15;;;;;;;8.13;7.53;;;22.70;99.90;;;;;;5072376;28;20205;-48
2022/05/09 11:31:58;;;;;;;7.87;7.27;;;22.40;99.90;;;;;;5073189;28;20201;-47
2022/05/09 11:34:40;;;;;;;8.43;7.83;;;22.50;99.90;;;;;;5071739;28;20258;-47
2022/05/09 11:37:19;;;;;;;9.10;8.60;;;22.50;99.90;;;;;;5073023;28;20689;-47
2022/05/09 11:39:58;;;;;;;8.37;7.87;;;22.60;99.90;;;;;;5070200;28;20209;-47
2022/05/09 11:45:37;;;;;;;7.70;7.17;;;22.60;99.90;;;;;;5071632;28;20216;-47
2022/05/09 11:48:14;;;;;;;7.50;6.97;;;22.40;99.90;;;;;;5071773;28;20205;-47
2022/05/09 11:50:48;;;;;;;8.50;7.80;;;22.60;99.90;;;;;;5073085;28;20207;-47
2022/05/09 11:53:18;;;;;;;6.93;6.57;;;22.70;99.90;;;;;;5072102;28;20250;-47
2022/05/09 11:55:48;;;;;;;7.77;7.17;;;22.70;99.90;;;;;;5072673;28;20221;-47
2022/05/09 11:58:16;;;;;;;6.83;6.53;;;22.40;99.90;;;;;;5070889;28;20266;-47
2022/05/09 12:00:53;;;;;;;6.97;6.57;;;22.50;99.90;;;;;;5072449;28;20201;-47
2022/05/09 12:04:01;;;;;;;7.23;6.73;;;22.60;99.90;;;;;;5072661;28;20205;-47
2022/05/09 12:06:42;;;;;;;7.43;7.03;;;22.70;99.90;;;;;;5071777;28;20566;-47
2022/05/09 12:09:11;;;;;;;7.37;6.80;;;22.70;99.90;;;;;;5072398;28;20195;-47
2022/05/09 12:11:47;;;;;;;6.70;6.20;;;22.50;99.90;;;;;;5070634;28;20231;-47
2022/05/09 12:14:41;;;;;;;7.60;7.20;;;22.50;99.90;;;;;;5052562;28;20206;-47
2022/05/09 12:17:35;;;;;;;7.33;6.70;;;22.40;99.90;;;;;;5057116;28;20220;-47
2022/05/09 12:20:10;;;;;;;8.17;7.70;;;22.60;99.90;;;;;;5072337;28;20197;-47
2022/05/09 12:22:47;;;;;;;6.40;6.10;;;22.70;99.90;;;;;;5070569;28;20227;-47
2022/05/09 12:26:03;;;;;;;7.07;6.67;;;22.30;99.90;;;;;;5064617;28;20197;-47
2022/05/09 12:28:31;;;;;;;7.10;6.50;;;22.30;99.90;;;;;;5065910;28;20663;-47
2022/05/09 12:30:59;;;;;;;7.23;6.73;;;22.10;99.90;;;;;;5070569;28;20193;-46
2022/05/09 12:33:35;;;;;;;6.87;6.50;;;22.10;99.90;;;;;;5070437;28;20199;-47
2022/05/09 12:36:06;;;;;;;6.77;6.40;;;22.10;99.90;;;;;;5070281;28;20229;-47
2022/05/09 12:38:36;;;;;;;7.23;6.87;;;22.30;99.90;;;;;;5069811;28;20221;-47
2022/05/09 12:41:08;;;;;;;8.37;7.87;;;22.30;99.90;;;;;;5071405;28;20205;-47
2022/05/09 12:43:36;;;;;;;6.73;6.43;;;22.20;99.90;;;;;;5070793;28;20244;-47
2022/05/09 12:46:07;;;;;;;7.30;6.80;;;22.20;99.90;;;;;;5071452;28;20235;-46
2022/05/09 12:48:39;;;;;;;6.83;6.43;;;22.30;99.90;;;;;;5069542;28;20671;-47
2022/05/09 12:51:08;;;;;;;7.13;6.67;;;22.20;99.90;;;;;;5071603;28;20233;-47
2022/05/09 12:53:36;;;;;;;7.30;6.90;;;22.30;99.90;;;;;;5071828;28;20201;-46
2022/05/09 12:56:11;;;;;;;6.37;6.07;;;22.40;99.90;;;;;;5071752;28;20787;-47
2022/05/09 12:58:40;;;;;;;7.83;7.40;;;22.40;99.90;;;;;;5070440;28;20220;-47
2022/05/09 13:01:12;;;;;;;7.17;6.73;;;22.50;99.90;;;;;;5071604;28;20200;-47
2022/05/09 13:03:46;;;;;;;7.67;7.17;;;22.60;99.90;;;;;;5071699;28;20262;-47
2022/05/09 13:06:15;;;;;;;7.63;7.13;;;22.60;99.90;;;;;;5069546;28;20787;-47
2022/05/09 13:08:42;;;;;;;7.23;6.83;;;22.60;99.90;;;;;;5065723;28;20197;-47
2022/05/09 13:11:14;;;;;;;8.23;7.43;;;22.70;99.90;;;;;;5067655;28;20556;-46
2022/05/09 13:13:47;;;;;;;7.90;7.40;;;22.70;99.90;;;;;;5069765;28;20197;-47
2022/05/09 13:16:22;;;;;;;7.17;6.77;;;22.80;99.90;;;;;;5057087;28;20304;-47